createdAt,value
2019-03-27T00:00:12.713Z,8.40
2019-03-27T00:02:41.838Z,8.40
2019-03-27T00:05:11.163Z,8.40
2019-03-27T00:07:40.240Z,8.40
2019-03-27T00:10:10.083Z,8.50
2019-03-27T00:12:39.523Z,8.50
2019-03-27T00:15:13.171Z,8.50
2019-03-27T00:17:40.921Z,8.50
2019-03-27T00:20:10.641Z,8.50
2019-03-27T00:22:39.905Z,8.50
2019-03-27T00:25:10.703Z,8.50
2019-03-27T00:27:39.808Z,8.50
2019-03-27T00:30:12.418Z,8.50
2019-03-27T00:32:41.617Z,8.50
2019-03-27T00:35:10.854Z,8.40
2019-03-27T00:37:40.326Z,8.50
2019-03-27T00:40:10.056Z,8.50
2019-03-27T00:42:39.594Z,8.50
2019-03-27T00:45:09.548Z,8.50
2019-03-27T00:47:38.666Z,8.60
2019-03-27T00:50:10.152Z,8.70
2019-03-27T00:52:39.304Z,8.80
2019-03-27T00:55:09.527Z,8.80
2019-03-27T00:57:38.849Z,8.80
2019-03-27T01:00:11.193Z,8.40
2019-03-27T01:02:40.314Z,8.30
2019-03-27T01:05:09.858Z,8.40
2019-03-27T01:07:39.128Z,8.40
2019-03-27T01:10:08.554Z,8.50
2019-03-27T01:12:37.854Z,8.50
2019-03-27T01:15:08.526Z,8.60
2019-03-27T01:17:37.598Z,8.70
2019-03-27T01:20:07.065Z,8.80
2019-03-27T01:22:36.645Z,9.00
2019-03-27T01:25:07.315Z,8.90
2019-03-27T01:27:36.434Z,8.90
2019-03-27T01:30:06.764Z,8.90
2019-03-27T01:32:35.933Z,9.00
2019-03-27T01:35:05.801Z,9.10
2019-03-27T01:37:34.942Z,9.10
2019-03-27T01:40:04.399Z,9.00
2019-03-27T01:42:33.819Z,9.00
2019-03-27T01:45:03.764Z,9.00
2019-03-27T01:47:32.866Z,9.00
2019-03-27T01:50:02.158Z,9.00
2019-03-27T01:52:31.390Z,9.00
2019-03-27T01:55:00.536Z,9.00
2019-03-27T01:57:29.706Z,8.90
2019-03-27T01:59:58.802Z,8.90
2019-03-27T02:02:27.951Z,8.90
2019-03-27T02:04:57.339Z,9.00
2019-03-27T02:07:26.444Z,9.10
2019-03-27T02:09:56.018Z,9.30
2019-03-27T02:12:25.630Z,9.20
2019-03-27T02:14:54.654Z,9.20
2019-03-27T02:17:23.720Z,9.10
2019-03-27T02:19:52.823Z,9.10
2019-03-27T02:22:22.067Z,9.00
2019-03-27T02:24:51.228Z,8.90
2019-03-27T02:27:20.557Z,8.80
2019-03-27T02:29:49.686Z,8.70
2019-03-27T02:32:20.655Z,8.60
2019-03-27T02:34:49.458Z,8.40
2019-03-27T02:37:18.599Z,8.30
2019-03-27T02:39:47.706Z,8.20
2019-03-27T02:42:17.444Z,8.20
2019-03-27T02:44:46.578Z,8.20
2019-03-27T02:47:15.719Z,8.30
2019-03-27T02:49:44.811Z,8.40
2019-03-27T02:52:13.925Z,8.40
2019-03-27T02:54:43.082Z,8.50
2019-03-27T02:57:12.188Z,8.40
2019-03-27T02:59:41.547Z,8.40
2019-03-27T03:02:10.684Z,8.40
2019-03-27T03:04:39.798Z,8.30
2019-03-27T03:07:08.970Z,8.50
2019-03-27T03:09:38.279Z,8.40
2019-03-27T03:12:07.547Z,8.30
2019-03-27T03:14:36.652Z,8.30
2019-03-27T03:17:06.128Z,8.20
2019-03-27T03:19:35.266Z,8.30
2019-03-27T03:22:04.484Z,8.30
2019-03-27T03:24:33.651Z,8.30
2019-03-27T03:27:03.110Z,8.30
2019-03-27T03:29:32.249Z,8.20
2019-03-27T03:32:01.387Z,8.30
2019-03-27T03:34:30.492Z,8.30
2019-03-27T03:36:59.943Z,8.10
2019-03-27T03:39:29.110Z,8.20
2019-03-27T03:41:58.217Z,8.20
2019-03-27T03:44:28.027Z,8.10
2019-03-27T03:47:00.185Z,8.10
2019-03-27T03:49:27.964Z,8.00
2019-03-27T03:51:57.064Z,8.10
2019-03-27T03:54:26.277Z,8.00
2019-03-27T03:56:57.727Z,8.10
2019-03-27T03:59:28.749Z,8.10
2019-03-27T04:01:59.370Z,8.10
2019-03-27T04:04:29.783Z,8.10
2019-03-27T04:06:58.923Z,8.10
2019-03-27T04:09:28.063Z,8.10
2019-03-27T04:11:57.192Z,8.10
2019-03-27T04:14:27.144Z,8.20
2019-03-27T04:16:56.280Z,8.10
2019-03-27T04:19:25.315Z,8.10
2019-03-27T04:21:54.697Z,8.00
2019-03-27T04:24:23.801Z,8.10
2019-03-27T04:26:52.970Z,8.20
2019-03-27T04:29:22.307Z,8.20
2019-03-27T04:31:51.424Z,8.30
2019-03-27T04:34:20.543Z,8.40
2019-03-27T04:36:49.654Z,8.40
2019-03-27T04:39:18.794Z,8.30
2019-03-27T04:41:47.823Z,8.40
2019-03-27T04:44:16.921Z,8.50
2019-03-27T04:46:46.067Z,8.60
2019-03-27T04:49:15.218Z,8.70
2019-03-27T04:51:44.919Z,8.70
2019-03-27T04:54:14.055Z,8.70
2019-03-27T04:56:43.219Z,8.50
2019-03-27T04:59:12.744Z,8.70
2019-03-27T05:01:41.852Z,8.80
2019-03-27T05:04:11.093Z,8.60
2019-03-27T05:06:40.203Z,8.50
2019-03-27T05:09:09.314Z,8.40
2019-03-27T05:11:38.461Z,8.50
2019-03-27T05:14:07.897Z,8.50
2019-03-27T05:16:36.946Z,8.50
2019-03-27T05:19:05.959Z,8.60
2019-03-27T05:21:35.162Z,8.60
2019-03-27T05:24:04.306Z,8.60
2019-03-27T05:26:33.421Z,8.70
2019-03-27T05:29:02.689Z,8.70
2019-03-27T05:31:31.810Z,8.70
2019-03-27T05:34:00.882Z,8.60
2019-03-27T05:36:30.038Z,8.40
2019-03-27T05:38:59.374Z,8.30
2019-03-27T05:41:28.530Z,8.30
2019-03-27T05:43:57.659Z,8.30
2019-03-27T05:46:26.809Z,8.30
2019-03-27T05:48:56.265Z,8.20
2019-03-27T05:51:25.383Z,8.20
2019-03-27T05:53:54.470Z,8.20
2019-03-27T05:56:23.618Z,8.30
2019-03-27T05:58:53.158Z,8.20
2019-03-27T06:01:22.233Z,8.30
2019-03-27T06:03:51.330Z,8.30
2019-03-27T06:06:20.607Z,8.30
2019-03-27T06:08:49.806Z,8.20
2019-03-27T06:11:18.928Z,8.30
2019-03-27T06:13:48.058Z,8.20
2019-03-27T06:16:17.174Z,8.10
2019-03-27T06:18:46.303Z,8.10
2019-03-27T06:21:15.384Z,8.20
2019-03-27T06:23:44.809Z,8.20
2019-03-27T06:26:13.932Z,8.20
2019-03-27T06:28:43.050Z,8.10
2019-03-27T06:31:12.600Z,8.20
2019-03-27T06:33:41.786Z,8.10
2019-03-27T06:36:10.894Z,8.30
2019-03-27T06:38:40.123Z,8.20
2019-03-27T06:41:09.203Z,8.40
2019-03-27T06:43:38.400Z,8.50
2019-03-27T06:46:07.892Z,8.60
2019-03-27T06:48:36.999Z,8.50
2019-03-27T06:51:06.050Z,8.40
2019-03-27T06:53:35.073Z,8.50
2019-03-27T06:56:04.322Z,8.40
2019-03-27T06:58:33.441Z,8.40
2019-03-27T07:01:02.877Z,8.30
2019-03-27T07:03:31.963Z,8.40
2019-03-27T07:06:01.084Z,8.50
2019-03-27T07:08:30.671Z,8.60
2019-03-27T07:10:59.772Z,8.70
2019-03-27T07:13:28.920Z,8.80
2019-03-27T07:15:58.068Z,8.80
2019-03-27T07:18:39.559Z,8.70
2019-03-27T07:20:58.283Z,8.90
2019-03-27T07:23:27.418Z,8.80
2019-03-27T07:25:56.452Z,8.80
2019-03-27T07:28:25.595Z,8.80
2019-03-27T07:30:54.751Z,8.90
2019-03-27T07:33:23.860Z,8.70
2019-03-27T07:35:53.327Z,8.50
2019-03-27T07:38:22.440Z,8.70
2019-03-27T07:40:51.633Z,9.00
2019-03-27T07:43:22.069Z,8.70
2019-03-27T07:45:51.223Z,8.50
2019-03-27T07:48:20.359Z,8.60
2019-03-27T07:50:49.874Z,8.40
2019-03-27T07:53:22.313Z,8.10
2019-03-27T07:55:49.940Z,8.00
2019-03-27T07:58:19.065Z,7.90
2019-03-27T08:00:48.680Z,7.70
2019-03-27T08:03:17.758Z,7.70
2019-03-27T08:05:46.872Z,7.50
2019-03-27T08:08:15.989Z,7.60
2019-03-27T08:10:45.163Z,7.70
2019-03-27T08:13:14.306Z,7.90
2019-03-27T08:15:43.666Z,8.10
2019-03-27T08:18:13.284Z,8.30
2019-03-27T08:20:42.456Z,8.40
2019-03-27T08:23:11.619Z,8.60
2019-03-27T08:25:40.957Z,8.60
2019-03-27T08:28:10.096Z,8.50
2019-03-27T08:30:39.540Z,8.80
2019-03-27T08:33:08.665Z,8.90
2019-03-27T08:35:37.792Z,9.20
2019-03-27T08:38:07.303Z,9.10
2019-03-27T08:40:36.515Z,9.00
2019-03-27T08:43:05.666Z,9.20
2019-03-27T08:45:34.777Z,9.20
2019-03-27T08:48:03.808Z,9.50
2019-03-27T08:50:33.060Z,9.50
2019-03-27T08:53:02.596Z,9.50
2019-03-27T08:55:31.804Z,9.50
2019-03-27T08:58:00.926Z,9.40
2019-03-27T09:00:42.541Z,9.40
2019-03-27T09:03:11.674Z,9.70
2019-03-27T09:05:41.091Z,9.70
2019-03-27T09:08:10.267Z,9.50
2019-03-27T09:10:39.356Z,9.70
2019-03-27T09:13:09.034Z,10.00
2019-03-27T09:15:38.084Z,10.30
2019-03-27T09:18:07.305Z,10.00
2019-03-27T09:20:36.402Z,10.30
2019-03-27T09:23:05.505Z,10.50
2019-03-27T09:25:34.707Z,10.30
2019-03-27T09:28:04.119Z,10.30
2019-03-27T09:30:33.258Z,10.40
2019-03-27T09:33:02.363Z,10.00
2019-03-27T09:35:31.821Z,9.90
2019-03-27T09:38:00.975Z,9.90
2019-03-27T09:40:30.095Z,10.20
2019-03-27T09:42:59.214Z,10.50
2019-03-27T09:45:28.429Z,11.00
2019-03-27T09:47:57.531Z,10.90
2019-03-27T09:50:26.699Z,11.00
2019-03-27T09:52:55.824Z,10.90
2019-03-27T09:55:24.954Z,11.00
2019-03-27T10:08:07.922Z,11.20
2019-03-27T10:10:37.065Z,11.30
2019-03-27T10:13:06.327Z,11.20
2019-03-27T10:15:35.464Z,11.40
2019-03-27T10:18:05.088Z,11.20
2019-03-27T10:20:34.253Z,10.90
2019-03-27T10:23:03.883Z,11.00
2019-03-27T10:28:01.840Z,11.60
2019-03-27T10:30:31.030Z,11.40
2019-03-27T10:33:00.264Z,11.10
2019-03-27T10:35:29.479Z,11.30
2019-03-27T10:42:57.443Z,11.60
2019-03-27T10:45:26.898Z,11.20
2019-03-27T10:47:56.081Z,11.30
2019-03-27T10:52:53.919Z,11.60
2019-03-27T10:55:23.064Z,11.40
2019-03-27T10:57:52.251Z,11.00
2019-03-27T11:02:50.734Z,11.30
2019-03-27T11:05:19.900Z,11.30
2019-03-27T11:07:49.006Z,11.30
2019-03-27T11:10:18.595Z,11.10
2019-03-27T11:12:47.868Z,11.00
2019-03-27T11:15:17.491Z,11.10
2019-03-27T11:17:46.602Z,11.00
2019-03-27T11:20:16.198Z,10.80
2019-03-27T11:22:45.354Z,11.00
2019-03-27T11:30:13.171Z,11.40
2019-03-27T11:32:42.276Z,11.40
2019-03-27T11:35:11.579Z,11.70
2019-03-27T11:42:38.601Z,11.70
2019-03-27T11:47:38.470Z,11.80
2019-03-27T11:50:10.158Z,11.80
2019-03-27T11:57:36.938Z,12.00
2019-03-27T12:00:09.269Z,11.90
2019-03-27T12:02:38.398Z,11.90
2019-03-27T12:05:08.120Z,11.60
2019-03-27T12:10:07.714Z,11.80
2019-03-27T12:12:36.869Z,11.80
2019-03-27T12:15:07.622Z,11.80
2019-03-27T12:17:36.833Z,11.80
2019-03-27T12:20:07.129Z,11.80
2019-03-27T12:32:32.534Z,11.90
2019-03-27T12:35:02.316Z,11.60
2019-03-27T12:37:31.494Z,11.60
2019-03-27T12:40:00.624Z,11.60
2019-03-27T12:42:29.937Z,11.70
2019-03-27T12:45:01.620Z,11.90
2019-03-27T12:52:27.642Z,11.80
2019-03-27T12:54:56.812Z,11.80
2019-03-27T12:57:25.910Z,11.70
2019-03-27T12:59:55.116Z,11.70
2019-03-27T13:02:24.265Z,12.00
2019-03-27T13:04:53.430Z,12.00
2019-03-27T13:07:22.569Z,11.60
2019-03-27T13:09:51.684Z,11.60
2019-03-27T13:12:20.773Z,11.40
2019-03-27T13:14:50.530Z,11.30
2019-03-27T13:17:19.768Z,11.20
2019-03-27T13:19:48.902Z,11.30
2019-03-27T13:22:18.040Z,11.30
2019-03-27T13:24:47.070Z,11.30
2019-03-27T13:27:16.243Z,11.10
2019-03-27T13:29:45.686Z,11.10
2019-03-27T13:32:14.829Z,11.20
2019-03-27T13:34:43.950Z,11.40
2019-03-27T13:37:13.059Z,11.70
2019-03-27T13:39:42.446Z,11.80
2019-03-27T13:42:11.529Z,11.60
2019-03-27T13:44:40.936Z,11.80
2019-03-27T14:16:56.261Z,12.10
2019-03-27T14:19:25.289Z,12.10
2019-03-27T14:21:55.317Z,12.10
2019-03-27T14:24:24.424Z,12.00
2019-03-27T14:26:53.564Z,11.90
2019-03-27T14:29:23.817Z,11.60
2019-03-27T14:31:53.188Z,11.60
2019-03-27T14:34:22.249Z,11.70
2019-03-27T14:36:51.374Z,11.30
2019-03-27T14:39:20.527Z,11.30
2019-03-27T14:41:49.650Z,11.40
2019-03-27T14:44:21.579Z,11.40
2019-03-27T14:54:17.551Z,11.80
2019-03-27T15:58:56.323Z,11.80
2019-03-27T16:01:24.544Z,11.60
2019-03-27T16:03:53.824Z,11.50
2019-03-27T16:06:23.091Z,11.40
2019-03-27T16:08:52.191Z,11.40
2019-03-27T16:11:21.585Z,11.40
2019-03-27T16:13:50.806Z,11.40
2019-03-27T16:16:20.091Z,11.40
2019-03-27T16:18:49.299Z,11.40
2019-03-27T16:21:18.717Z,10.60
2019-03-27T16:23:47.862Z,10.40
2019-03-27T16:26:17.062Z,10.20
2019-03-27T16:28:46.163Z,10.30
2019-03-27T16:31:15.753Z,10.40
2019-03-27T16:33:45.031Z,10.70
2019-03-27T16:36:14.388Z,10.80
2019-03-27T16:38:43.499Z,10.80
2019-03-27T16:41:12.778Z,10.80
2019-03-27T16:43:44.237Z,10.90
2019-03-27T16:46:13.393Z,10.90
2019-03-27T16:48:42.832Z,10.90
2019-03-27T16:51:12.025Z,10.90
2019-03-27T16:53:41.176Z,10.90
2019-03-27T16:56:12.931Z,10.90
2019-03-27T16:58:45.192Z,10.90
2019-03-27T17:01:17.107Z,10.90
2019-03-27T17:04:11.003Z,10.90
2019-03-27T17:06:39.143Z,10.80
2019-03-27T17:09:08.832Z,10.80
2019-03-27T17:11:38.249Z,10.80
2019-03-27T17:14:09.071Z,10.70
2019-03-27T17:16:38.179Z,10.70
2019-03-27T17:19:07.229Z,10.60
2019-03-27T17:21:36.415Z,10.50
2019-03-27T17:24:05.692Z,9.80
2019-03-27T17:26:34.997Z,9.50
2019-03-27T17:29:04.193Z,9.40
2019-03-27T17:31:33.330Z,9.40
2019-03-27T17:34:02.396Z,9.60
2019-03-27T17:36:31.524Z,9.70
2019-03-27T17:39:00.987Z,9.80
2019-03-27T17:41:30.161Z,9.90
2019-03-27T17:43:59.517Z,10.00
2019-03-27T17:46:28.701Z,10.00
2019-03-27T17:48:57.792Z,10.00
2019-03-27T17:51:26.944Z,10.10
2019-03-27T17:53:56.065Z,10.10
2019-03-27T17:56:25.242Z,10.10
2019-03-27T17:58:54.610Z,10.10
2019-03-27T18:01:23.695Z,10.20
2019-03-27T18:03:52.898Z,10.20
2019-03-27T18:06:22.005Z,10.20
2019-03-27T18:08:51.228Z,10.20
2019-03-27T18:11:20.370Z,10.10
2019-03-27T18:13:53.028Z,10.20
2019-03-27T18:16:30.000Z,10.20
2019-03-27T18:19:00.582Z,10.10
2019-03-27T18:22:10.646Z,10.10
2019-03-27T18:24:46.565Z,10.10
2019-03-27T18:27:21.745Z,10.10
2019-03-27T18:29:50.560Z,10.10
2019-03-27T18:32:19.491Z,10.10
2019-03-27T18:34:55.215Z,10.10
2019-03-27T18:37:24.382Z,10.10
2019-03-27T18:40:05.966Z,10.10
2019-03-27T18:42:34.968Z,10.10
2019-03-27T18:45:11.942Z,10.10
2019-03-27T18:47:40.925Z,10.10
2019-03-27T18:50:10.262Z,10.10
2019-03-27T18:52:46.215Z,10.10
2019-03-27T18:55:25.818Z,10.10
2019-03-27T18:57:59.883Z,10.10
2019-03-27T19:00:23.711Z,10.10
2019-03-27T19:02:52.551Z,10.10
2019-03-27T19:05:28.595Z,10.10
2019-03-27T19:07:57.417Z,10.10
2019-03-27T19:10:33.263Z,10.10
2019-03-27T19:13:02.133Z,10.10
2019-03-27T19:15:30.998Z,10.00
2019-03-27T19:18:06.570Z,10.00
2019-03-27T19:20:35.437Z,10.00
2019-03-27T19:23:10.562Z,10.00
2019-03-27T19:25:46.108Z,10.00
2019-03-27T19:28:14.978Z,10.00
2019-03-27T19:30:50.366Z,9.90
2019-03-27T19:33:19.184Z,9.90
2019-03-27T19:35:55.143Z,9.80
2019-03-27T19:38:24.001Z,9.80
2019-03-27T19:41:06.232Z,9.80
2019-03-27T19:43:35.055Z,9.80
2019-03-27T19:46:04.042Z,9.70
2019-03-27T19:48:39.907Z,9.80
2019-03-27T19:51:11.244Z,9.70
2019-03-27T19:53:46.222Z,9.70
2019-03-27T19:56:15.081Z,9.70
2019-03-27T19:58:43.930Z,9.70
2019-03-27T20:01:19.302Z,9.70
2019-03-27T20:03:48.180Z,9.70
2019-03-27T20:06:24.013Z,9.70
2019-03-27T20:08:56.497Z,9.70
2019-03-27T20:11:23.752Z,9.70
2019-03-27T20:13:59.458Z,9.70
2019-03-27T20:16:28.337Z,9.70
2019-03-27T20:19:03.409Z,9.70
2019-03-27T20:21:32.237Z,9.70
2019-03-27T20:24:07.584Z,9.70
2019-03-27T20:26:50.214Z,9.70
2019-03-27T20:29:19.080Z,9.70
2019-03-27T20:31:54.912Z,9.70
2019-03-27T20:34:23.749Z,9.60
2019-03-27T20:36:52.608Z,9.60
2019-03-27T20:39:27.605Z,9.60
2019-03-27T20:41:56.465Z,9.60
2019-03-27T20:44:31.782Z,9.60
2019-03-27T20:47:00.610Z,9.60
2019-03-27T20:49:29.461Z,9.60
2019-03-27T20:52:05.114Z,9.60
2019-03-27T20:54:34.911Z,9.60
2019-03-27T20:57:09.926Z,9.60
2019-03-27T20:59:39.046Z,9.50
2019-03-27T21:02:07.873Z,9.30
2019-03-27T21:04:43.356Z,9.20
2019-03-27T21:07:12.218Z,9.10
2019-03-27T21:09:47.917Z,9.10
2019-03-27T21:12:17.168Z,9.10
2019-03-27T21:14:46.027Z,9.10
2019-03-27T21:17:21.516Z,9.10
2019-03-27T21:19:50.486Z,9.10
2019-03-27T21:22:26.811Z,9.10
2019-03-27T21:25:08.608Z,9.10
2019-03-27T21:27:47.160Z,9.10
2019-03-27T21:30:16.710Z,9.00
2019-03-27T21:32:45.555Z,9.00
2019-03-27T21:35:22.749Z,9.10
2019-03-27T21:37:51.596Z,9.10
2019-03-27T21:40:28.886Z,9.10
2019-03-27T21:42:57.697Z,9.10
2019-03-27T21:45:26.613Z,9.20
2019-03-27T21:48:01.956Z,9.10
2019-03-27T21:50:31.019Z,9.10
2019-03-27T21:53:06.564Z,9.20
2019-03-27T21:55:42.820Z,9.20
2019-03-27T21:58:06.254Z,9.10
2019-03-27T22:00:44.437Z,9.10
2019-03-27T22:03:13.705Z,9.00
2019-03-27T22:05:49.589Z,8.90
2019-03-27T22:08:19.115Z,8.80
2019-03-27T22:10:48.254Z,8.70
2019-03-27T22:13:23.249Z,8.70
2019-03-27T22:15:52.125Z,8.70
2019-03-27T22:18:27.359Z,8.70
2019-03-27T22:20:56.219Z,8.50
2019-03-27T22:23:25.091Z,8.40
2019-03-27T22:26:00.604Z,8.40
2019-03-27T22:28:35.884Z,8.30
2019-03-27T22:31:18.402Z,8.40
2019-03-27T22:33:47.216Z,8.10
2019-03-27T22:36:16.159Z,8.20
2019-03-27T22:38:52.038Z,8.10
2019-03-27T22:41:20.883Z,8.10
2019-03-27T22:43:56.145Z,8.00
2019-03-27T22:46:25.005Z,8.10
2019-03-27T22:48:53.864Z,8.00
2019-03-27T22:51:28.850Z,8.00
2019-03-27T22:53:57.713Z,8.10
2019-03-27T22:56:32.725Z,8.10
2019-03-27T22:59:01.574Z,8.00
2019-03-27T23:01:33.360Z,8.00
2019-03-27T23:04:08.627Z,8.00
2019-03-27T23:06:37.531Z,8.00
2019-03-27T23:09:12.781Z,8.00
2019-03-27T23:11:41.685Z,8.00
2019-03-27T23:14:10.512Z,8.00
2019-03-27T23:16:46.110Z,8.00
2019-03-27T23:19:14.942Z,8.10
2019-03-27T23:21:50.477Z,8.00
2019-03-27T23:24:19.334Z,8.00
2019-03-27T23:27:01.197Z,8.00
2019-03-27T23:29:37.414Z,8.00
2019-03-27T23:32:12.919Z,8.00
2019-03-27T23:34:41.840Z,8.00
2019-03-27T23:37:10.667Z,8.00
2019-03-27T23:39:46.387Z,8.10
2019-03-27T23:42:16.423Z,8.00
2019-03-27T23:44:52.620Z,8.10
2019-03-27T23:47:21.550Z,8.10
2019-03-27T23:49:50.410Z,8.00
2019-03-27T23:52:25.629Z,8.00
2019-03-27T23:54:54.446Z,8.00
2019-03-27T23:57:30.300Z,8.00
2019-03-27T23:59:59.258Z,8.10
